METAR TAF

[Source: ADDS]
METAR
LFCR 260000Z AUTO 12015KT CAVOK 18/04 Q1015 TEMPO 13015G27KT =
LFBA 260000Z AUTO 09004KT CAVOK 16/15 Q1012 =
LFSL 260000Z AUTO 13006KT 110V170 CAVOK 19/09 Q1013 =
LFLW 260000Z AUTO 09007KT 060V120 CAVOK 17/05 Q1015 =
TAF
LFCR 252300Z 2600/2624 12012KT CAVOK PROB40 TEMPO 2600/2618 13015G27KT PROB30 TEMPO 2602/2606 FEW080CB PROB30 2611/2614 FEW080CB =
SR / SS: 04:16 / 19:26 UTC (LFCC 2018-05-26)